createdAt,value
2016-08-18T00:00:40.855Z,93.84
2016-08-18T00:01:40.877Z,93.98
2016-08-18T00:02:40.902Z,93.98
2016-08-18T00:03:40.928Z,93.98
2016-08-18T00:04:40.954Z,93.79
2016-08-18T00:05:40.975Z,93.88
2016-08-18T00:06:40.996Z,93.7
2016-08-18T00:07:41.027Z,93.79
2016-08-18T00:08:41.049Z,93.98
2016-08-18T00:09:41.068Z,93.74
2016-08-18T00:10:41.097Z,93.98
2016-08-18T00:11:41.119Z,93.79
2016-08-18T00:12:41.146Z,93.98
2016-08-18T00:13:41.168Z,94.74
2016-08-18T00:14:41.195Z,94.46
2016-08-18T00:15:41.216Z,94.84
2016-08-18T00:16:41.244Z,94.56
2016-08-18T00:17:56.191Z,94.46
2016-08-18T00:18:41.295Z,94.36
2016-08-18T00:19:41.317Z,94.56
2016-08-18T00:20:41.344Z,94.17
2016-08-18T00:21:41.369Z,94.93
2016-08-18T00:22:41.442Z,95.12
2016-08-18T00:23:41.412Z,95.22
2016-08-18T00:24:41.440Z,95.41
2016-08-18T00:25:41.465Z,95.7
2016-08-18T00:26:41.486Z,95.89
2016-08-18T00:27:41.516Z,94.93
2016-08-18T00:28:41.554Z,95.61
2016-08-18T00:30:41.589Z,95.03
2016-08-18T00:31:41.620Z,95.89
2016-08-18T00:33:56.582Z,95.56
2016-08-18T00:34:41.687Z,95.75
2016-08-18T00:35:41.712Z,96.32
2016-08-18T00:36:41.734Z,95.94
2016-08-18T00:37:41.757Z,95.94
2016-08-18T00:38:41.782Z,95.94
2016-08-18T00:39:41.806Z,95.56
2016-08-18T00:41:41.855Z,96.41
2016-08-18T00:42:41.873Z,96.32
2016-08-18T00:43:41.905Z,96.51
2016-08-18T00:44:41.926Z,96.22
2016-08-18T00:45:41.957Z,96.13
2016-08-18T00:46:41.975Z,96.51
2016-08-18T00:47:42.004Z,96.13
2016-08-18T00:48:42.025Z,96.22
2016-08-18T00:49:56.973Z,96.13
2016-08-18T00:51:42.095Z,96.51
2016-08-18T00:52:42.122Z,96.13
2016-08-18T00:53:42.145Z,96.51
2016-08-18T00:54:42.168Z,96.41
2016-08-18T00:55:42.195Z,96.7
2016-08-18T00:56:42.220Z,96.22
2016-08-18T00:57:42.246Z,96.32
2016-08-18T00:58:42.968Z,96.13
2016-08-18T00:59:42.291Z,96.22
2016-08-18T01:00:42.313Z,96.22
2016-08-18T01:01:42.338Z,95.65
2016-08-18T01:02:42.364Z,95.75
2016-08-18T01:03:42.389Z,95.94
2016-08-18T01:04:42.410Z,95.75
2016-08-18T01:05:57.358Z,96.03
2016-08-18T01:06:42.462Z,96.61
2016-08-18T01:07:42.484Z,96.32
2016-08-18T01:08:42.509Z,96.89
2016-08-18T01:09:42.533Z,96.89
2016-08-18T01:10:42.556Z,96.32
2016-08-18T01:11:42.581Z,96.22
2016-08-18T01:12:44.661Z,95.56
2016-08-18T01:13:42.632Z,95.27
2016-08-18T01:14:42.659Z,96.03
2016-08-18T01:15:42.681Z,95.75
2016-08-18T01:16:42.700Z,96.22
2016-08-18T01:19:42.774Z,95.65
2016-08-18T01:20:57.721Z,95.84
2016-08-18T01:21:42.827Z,95.94
2016-08-18T01:22:42.848Z,96.8
2016-08-18T01:23:44.927Z,96.22
2016-08-18T01:24:42.898Z,96.13
2016-08-18T01:25:42.922Z,96.22
2016-08-18T01:26:42.947Z,96.32
2016-08-18T01:27:42.971Z,96.7
2016-08-18T01:28:42.990Z,96.7
2016-08-18T01:29:43.012Z,96.51
2016-08-18T01:30:43.039Z,96.89
2016-08-18T01:34:43.138Z,96.89
2016-08-18T01:36:43.186Z,97.56
2016-08-18T01:37:43.208Z,96.7
2016-08-18T01:38:43.234Z,97.27
2016-08-18T01:39:43.259Z,96.61
2016-08-18T01:40:43.281Z,96.51
2016-08-18T01:41:43.307Z,96.51
2016-08-18T01:42:43.325Z,96.7
2016-08-18T01:43:43.355Z,96.7
2016-08-18T01:44:43.376Z,97.56
2016-08-18T01:45:43.409Z,97.56
2016-08-18T01:46:43.438Z,96.8
2016-08-18T01:47:43.446Z,96.7
2016-08-18T01:48:43.475Z,96.13
2016-08-18T01:49:43.494Z,96.03
2016-08-18T01:50:43.523Z,96.7
2016-08-18T01:51:43.544Z,96.8
2016-08-18T01:52:58.491Z,96.98
2016-08-18T01:53:43.595Z,96.8
2016-08-18T01:54:43.614Z,97.37
2016-08-18T01:55:43.644Z,97.32
2016-08-18T01:56:43.667Z,97.13
2016-08-18T01:57:43.690Z,97.27
2016-08-18T01:58:43.710Z,97.08
2016-08-18T01:59:43.737Z,97.27
2016-08-18T02:00:43.768Z,97.32
2016-08-18T02:01:43.786Z,97.46
2016-08-18T02:02:43.810Z,97.41
2016-08-18T02:03:43.833Z,96.94
2016-08-18T02:04:43.857Z,97.27
2016-08-18T02:06:43.905Z,97.17
2016-08-18T02:07:43.930Z,97.13
2016-08-18T02:08:58.877Z,97.7
2016-08-18T02:09:43.980Z,97.41
2016-08-18T02:10:44.008Z,97.27
2016-08-18T02:11:44.027Z,97.46
2016-08-18T02:12:44.050Z,96.61
2016-08-18T02:13:44.075Z,96.7
2016-08-18T02:14:44.098Z,96.61
2016-08-18T02:15:44.121Z,96.94
2016-08-18T02:16:44.146Z,96.7
2016-08-18T02:17:44.168Z,96.7
2016-08-18T02:18:44.188Z,96.7
2016-08-18T02:19:44.218Z,96.22
2016-08-18T02:20:44.235Z,96.13
2016-08-18T02:22:44.282Z,96.03
2016-08-18T02:23:44.362Z,96.22
2016-08-18T02:24:59.307Z,96.22
2016-08-18T02:25:44.406Z,96.13
2016-08-18T02:26:44.389Z,96.22
2016-08-18T02:27:44.415Z,96.22
2016-08-18T02:28:44.432Z,96.22
2016-08-18T02:29:44.454Z,96.22
2016-08-18T02:30:44.481Z,96.22
2016-08-18T02:31:44.500Z,96.22
2016-08-18T02:32:44.524Z,96.13
2016-08-18T02:33:44.549Z,95.84
2016-08-18T02:34:44.573Z,96.41
2016-08-18T02:35:44.598Z,96.03
2016-08-18T02:37:44.641Z,96.89
2016-08-18T02:38:44.669Z,97.46
2016-08-18T02:39:44.691Z,96.56
2016-08-18T02:40:59.645Z,97.32
2016-08-18T02:41:44.739Z,97.22
2016-08-18T02:42:44.767Z,97.41
2016-08-18T02:43:44.785Z,97.41
2016-08-18T02:44:44.809Z,97.32
2016-08-18T02:45:44.831Z,97.51
2016-08-18T02:46:44.875Z,97.41
2016-08-18T02:47:44.883Z,97.41
2016-08-18T02:48:44.905Z,97.51
2016-08-18T02:49:44.932Z,97.51
2016-08-18T02:50:44.953Z,97.61
2016-08-18T02:51:44.974Z,97.99
2016-08-18T02:52:45.002Z,97.99
2016-08-18T02:53:45.023Z,98.18
2016-08-18T02:54:45.054Z,98.08
2016-08-18T02:55:59.997Z,98.65
2016-08-18T02:56:45.100Z,98.46
2016-08-18T02:57:45.121Z,98.46
2016-08-18T02:58:45.147Z,98.18
2016-08-18T02:59:45.170Z,97.89
2016-08-18T03:00:45.193Z,98.08
2016-08-18T03:01:45.220Z,97.89
2016-08-18T03:03:45.262Z,97.61
2016-08-18T03:04:45.292Z,97.32
2016-08-18T03:05:45.307Z,97.7
2016-08-18T03:07:45.354Z,98.18
2016-08-18T03:08:45.381Z,97.99
2016-08-18T03:09:45.407Z,98.08
2016-08-18T03:11:45.449Z,98.08
2016-08-18T03:12:45.473Z,98.27
2016-08-18T03:13:45.496Z,97.89
2016-08-18T03:14:45.522Z,97.22
2016-08-18T03:15:45.547Z,97.13
2016-08-18T03:16:45.570Z,97.51
2016-08-18T03:17:45.597Z,97.22
2016-08-18T03:18:45.616Z,96.84
2016-08-18T03:19:45.642Z,97.22
2016-08-18T03:20:45.665Z,97.51
2016-08-18T03:21:45.689Z,96.84
2016-08-18T03:22:45.712Z,96.56
2016-08-18T03:23:45.732Z,96.89
2016-08-18T03:24:46.454Z,97.37
2016-08-18T03:25:45.779Z,96.75
2016-08-18T03:26:45.810Z,96.46
2016-08-18T03:28:00.755Z,96.94
2016-08-18T03:28:45.853Z,97.13
2016-08-18T03:29:45.879Z,97.41
2016-08-18T03:30:45.904Z,96.8
2016-08-18T03:31:45.925Z,97.32
2016-08-18T03:32:45.949Z,96.56
2016-08-18T03:33:45.975Z,98.08
2016-08-18T03:34:45.996Z,96.75
2016-08-18T03:35:46.022Z,96.75
2016-08-18T03:36:46.046Z,97.22
2016-08-18T03:37:46.067Z,96.65
2016-08-18T03:39:46.114Z,96.65
2016-08-18T03:40:46.138Z,97.22
2016-08-18T03:42:46.195Z,96.94
2016-08-18T03:44:01.134Z,97.51
2016-08-18T03:44:46.236Z,97.41
2016-08-18T03:46:46.285Z,96.7
2016-08-18T03:47:46.302Z,96.84
2016-08-18T03:48:46.334Z,96.75
2016-08-18T03:49:46.352Z,96.65
2016-08-18T03:50:46.378Z,97.32
2016-08-18T03:51:46.400Z,97.41
2016-08-18T03:52:46.422Z,97.22
2016-08-18T03:53:46.450Z,97.13
2016-08-18T03:54:46.472Z,97.32
2016-08-18T03:55:46.500Z,97.41
2016-08-18T03:56:46.523Z,97.13
2016-08-18T03:57:46.545Z,96.75
2016-08-18T03:58:46.568Z,98.08
2016-08-18T04:00:01.514Z,97.51
2016-08-18T04:00:46.616Z,97.61
2016-08-18T04:01:46.640Z,97.7
2016-08-18T04:02:46.665Z,97.51
2016-08-18T04:03:46.681Z,97.89
2016-08-18T04:04:46.706Z,97.7
2016-08-18T04:05:46.733Z,97.7
2016-08-18T04:06:46.754Z,97.8
2016-08-18T04:07:46.777Z,97.8
2016-08-18T04:08:46.802Z,97.99
2016-08-18T04:09:46.822Z,97.8
2016-08-18T04:10:46.848Z,97.61
2016-08-18T04:11:46.872Z,97.51
2016-08-18T04:12:46.898Z,97.51
2016-08-18T04:13:46.921Z,97.56
2016-08-18T04:14:46.946Z,97.46
2016-08-18T04:16:01.889Z,97.32
2016-08-18T04:16:46.988Z,97.51
2016-08-18T04:17:47.020Z,97.37
2016-08-18T04:18:47.037Z,97.37
2016-08-18T04:19:47.062Z,97.75
2016-08-18T04:20:47.085Z,97.66
2016-08-18T04:21:47.112Z,97.37
2016-08-18T04:22:47.133Z,97.66
2016-08-18T04:23:47.156Z,97.37
2016-08-18T04:24:47.181Z,97.27
2016-08-18T04:25:47.205Z,96.89
2016-08-18T04:26:47.381Z,97.46
2016-08-18T04:28:47.278Z,97.17
2016-08-18T04:29:47.300Z,96.8
2016-08-18T04:31:02.247Z,96.7
2016-08-18T04:31:47.348Z,96.75
2016-08-18T04:32:47.372Z,96.56
2016-08-18T04:33:47.403Z,96.75
2016-08-18T04:34:47.414Z,97.42
2016-08-18T04:35:47.444Z,96.66
2016-08-18T04:36:47.469Z,97.32
2016-08-18T04:37:47.488Z,97.03
2016-08-18T04:38:47.514Z,96.94
2016-08-18T04:39:47.536Z,96.66
2016-08-18T04:40:47.569Z,97.71
2016-08-18T04:41:47.584Z,96.75
2016-08-18T04:42:47.609Z,96.94
2016-08-18T04:44:47.658Z,96.8
2016-08-18T04:45:47.678Z,96.61
2016-08-18T04:46:47.705Z,96.32
2016-08-18T04:47:47.729Z,95.46
2016-08-18T04:48:47.748Z,95.46
2016-08-18T04:49:47.773Z,95.84
2016-08-18T04:50:47.797Z,94.98
2016-08-18T04:51:47.825Z,95.84
2016-08-18T04:52:47.851Z,94.7
2016-08-18T04:53:47.871Z,94.89
2016-08-18T04:54:47.898Z,95.41
2016-08-18T04:55:47.920Z,94.46
2016-08-18T04:56:47.944Z,92.83
2016-08-18T04:57:47.968Z,92.93
2016-08-18T04:58:47.987Z,92.36
2016-08-18T05:01:48.061Z,90.92
2016-08-18T05:03:03.010Z,89.97
2016-08-18T05:03:48.115Z,89.87
2016-08-18T05:04:48.135Z,89.01
2016-08-18T05:05:48.157Z,89.01
2016-08-18T05:06:48.184Z,88.87
2016-08-18T05:07:48.212Z,88.96
2016-08-18T05:08:48.232Z,88.77
2016-08-18T05:09:48.260Z,89.06
2016-08-18T05:10:48.281Z,88.77
2016-08-18T05:11:48.309Z,88.2
2016-08-18T05:12:48.326Z,88.48
2016-08-18T05:13:48.357Z,89.06
2016-08-18T05:14:48.378Z,90.3
2016-08-18T05:16:48.428Z,91.45
2016-08-18T05:17:48.453Z,91.16
2016-08-18T05:19:03.398Z,91.35
2016-08-18T05:19:48.500Z,90.59
2016-08-18T05:20:48.523Z,91.06
2016-08-18T05:21:48.551Z,91.45
2016-08-18T05:22:48.571Z,90.53
2016-08-18T05:23:48.593Z,89.1
2016-08-18T05:24:48.626Z,88.15
2016-08-18T05:25:48.641Z,88.05
2016-08-18T05:26:48.675Z,88.72
2016-08-18T05:27:48.696Z,88.62
2016-08-18T05:28:48.718Z,87.66
2016-08-18T05:29:48.744Z,87
2016-08-18T05:31:48.846Z,87
2016-08-18T05:32:48.818Z,87.23
2016-08-18T05:33:48.847Z,88.34
2016-08-18T05:35:03.790Z,88.19
2016-08-18T05:36:48.915Z,88.48
2016-08-18T05:37:48.939Z,87.71
2016-08-18T05:38:48.966Z,87.23
2016-08-18T05:39:48.991Z,87.43
2016-08-18T05:40:49.014Z,86.76
2016-08-18T05:41:49.042Z,85.71
2016-08-18T05:42:49.069Z,85.51
2016-08-18T05:43:49.087Z,85.61
2016-08-18T05:44:49.115Z,85.71
2016-08-18T05:45:49.141Z,86.22
2016-08-18T05:46:49.163Z,84.79
2016-08-18T05:47:49.190Z,83.36
2016-08-18T05:48:49.224Z,83.06
2016-08-18T05:49:49.287Z,83.73
2016-08-18T05:51:04.187Z,84.22
2016-08-18T05:51:49.289Z,84.41
2016-08-18T05:52:49.314Z,83.93
2016-08-18T05:53:49.357Z,84.02
2016-08-18T05:54:50.088Z,84.22
2016-08-18T05:55:49.390Z,82.78
2016-08-18T05:56:49.414Z,81.34
2016-08-18T05:57:49.442Z,81.1
2016-08-18T05:58:49.461Z,80.33
2016-08-18T05:59:49.492Z,80.33
2016-08-18T06:00:49.515Z,80.04
2016-08-18T06:01:49.539Z,81.57
2016-08-18T06:02:49.561Z,79.85
2016-08-18T06:03:49.594Z,79.75
2016-08-18T06:04:49.623Z,80.43
2016-08-18T06:06:04.562Z,81.2
2016-08-18T06:06:49.664Z,79.47
2016-08-18T06:07:49.689Z,79.41
2016-08-18T06:08:49.716Z,79.32
2016-08-18T06:09:49.740Z,81.13
2016-08-18T06:10:49.764Z,81.33
2016-08-18T06:11:49.789Z,81.23
2016-08-18T06:13:49.839Z,78.07
2016-08-18T06:14:49.863Z,78.84
2016-08-18T06:15:49.900Z,78.74
2016-08-18T06:16:49.919Z,77.31
2016-08-18T06:18:50.665Z,76.73
2016-08-18T06:19:49.994Z,78.93
2016-08-18T06:21:50.045Z,75.77
2016-08-18T06:22:50.067Z,75.68
2016-08-18T06:23:50.098Z,75.48
2016-08-18T06:24:50.117Z,75.39
2016-08-18T06:25:50.158Z,75.52
2016-08-18T06:26:50.167Z,76.57
2016-08-18T06:27:50.196Z,74.76
2016-08-18T06:28:50.219Z,74.47
2016-08-18T06:29:50.257Z,75.14
2016-08-18T06:30:50.272Z,74.6
2016-08-18T06:31:50.305Z,75.14
2016-08-18T06:32:50.320Z,74.57
2016-08-18T06:33:50.400Z,74.69
2016-08-18T06:34:50.373Z,73.74
2016-08-18T06:36:50.425Z,72.59
2016-08-18T06:38:05.376Z,72.78
2016-08-18T06:39:50.515Z,72.39
2016-08-18T06:40:50.528Z,72.11
2016-08-18T06:41:50.552Z,71.63
2016-08-18T06:42:50.575Z,71.92
2016-08-18T06:43:50.603Z,70.96
2016-08-18T06:44:50.629Z,70.9
2016-08-18T06:45:50.652Z,70.61
2016-08-18T06:46:50.678Z,69.56
2016-08-18T06:47:50.703Z,69.56
2016-08-18T06:48:50.733Z,69.65
2016-08-18T06:49:50.763Z,69.56
2016-08-18T06:50:50.785Z,69.17
2016-08-18T06:51:50.807Z,68.5
2016-08-18T06:52:50.831Z,69.17
2016-08-18T06:54:05.782Z,68.12
2016-08-18T06:55:50.915Z,68.21
2016-08-18T06:56:50.934Z,68.59
2016-08-18T06:57:50.963Z,67.83
2016-08-18T06:58:50.986Z,68.02
2016-08-18T06:59:51.012Z,68.3
2016-08-18T07:00:51.038Z,68.79
2016-08-18T07:01:51.060Z,68.05
2016-08-18T07:02:51.091Z,67.67
2016-08-18T07:03:51.118Z,67.44
2016-08-18T07:04:51.144Z,67.47
2016-08-18T07:05:51.162Z,67.76
2016-08-18T07:06:51.192Z,67
2016-08-18T07:07:51.216Z,67.47
2016-08-18T07:08:51.244Z,67.38
2016-08-18T07:10:06.190Z,68.24
2016-08-18T07:10:51.289Z,67.38
2016-08-18T07:11:51.319Z,66.8
2016-08-18T07:12:51.348Z,66.9
2016-08-18T07:13:51.369Z,66.03
2016-08-18T07:14:51.398Z,66.13
2016-08-18T07:15:51.423Z,65.65
2016-08-18T07:16:51.447Z,65.84
2016-08-18T07:17:51.472Z,66.13
2016-08-18T07:18:51.564Z,66.13
2016-08-18T07:19:51.531Z,66.13
2016-08-18T07:20:51.554Z,65.94
2016-08-18T07:21:51.581Z,65.56
2016-08-18T07:22:51.608Z,65.78
2016-08-18T07:23:51.630Z,64.63
2016-08-18T07:24:51.659Z,64.53
2016-08-18T07:26:06.607Z,64.25
2016-08-18T07:26:51.713Z,64.82
2016-08-18T07:27:52.443Z,64.82
2016-08-18T07:28:51.761Z,64.92
2016-08-18T07:29:51.790Z,64.43
2016-08-18T07:30:51.813Z,64.43
2016-08-18T07:31:51.843Z,64.15
2016-08-18T07:32:51.863Z,65.01
2016-08-18T07:33:51.889Z,64.92
2016-08-18T07:34:51.914Z,64.25
2016-08-18T07:35:51.942Z,64.72
2016-08-18T07:36:51.969Z,64.85
2016-08-18T07:37:51.993Z,63.51
2016-08-18T07:39:52.046Z,64.47
2016-08-18T07:41:06.998Z,64.09
2016-08-18T07:41:52.102Z,64.18
2016-08-18T07:42:52.822Z,63.89
2016-08-18T07:43:52.150Z,63.41
2016-08-18T07:44:52.181Z,63.12
2016-08-18T07:45:52.205Z,63.99
2016-08-18T07:46:52.232Z,63.02
2016-08-18T07:47:52.255Z,63.64
2016-08-18T07:48:52.287Z,63.15
2016-08-18T07:49:52.309Z,63.92
2016-08-18T07:50:52.335Z,63.73
2016-08-18T07:51:52.358Z,63.06
2016-08-18T07:54:52.441Z,64.02
2016-08-18T07:55:52.469Z,63.06
2016-08-18T07:56:52.495Z,63.92
2016-08-18T07:58:52.547Z,63.54
2016-08-18T07:59:52.575Z,63.54
2016-08-18T08:00:52.600Z,63.83
2016-08-18T08:01:52.628Z,63.06
2016-08-18T08:02:52.657Z,62.87
2016-08-18T08:03:52.677Z,63.92
2016-08-18T08:04:53.403Z,63.73
2016-08-18T08:05:52.744Z,64.02
2016-08-18T08:06:52.756Z,64.02
2016-08-18T08:07:52.786Z,63.54
2016-08-18T08:08:52.811Z,63.18
2016-08-18T08:09:52.836Z,63.09
2016-08-18T08:11:52.893Z,62.54
2016-08-18T08:13:07.839Z,61.49
2016-08-18T08:13:52.943Z,62.35
2016-08-18T08:14:52.967Z,62
2016-08-18T08:15:53.697Z,61.97
2016-08-18T08:16:53.023Z,60.84
2016-08-18T08:17:53.053Z,61.61
2016-08-18T08:18:53.086Z,60.46
2016-08-18T08:19:53.102Z,61.77
2016-08-18T08:20:53.130Z,61.77
2016-08-18T08:21:53.156Z,62.77
2016-08-18T08:22:53.187Z,61.9
2016-08-18T08:23:53.212Z,62.29
2016-08-18T08:25:53.270Z,61.71
2016-08-18T08:26:53.305Z,60.84
2016-08-18T08:27:53.366Z,60.58
2016-08-18T08:29:08.268Z,60.55
2016-08-18T08:29:53.374Z,60.68
2016-08-18T08:30:53.418Z,60.87
2016-08-18T08:31:53.491Z,61.35
2016-08-18T08:32:53.450Z,60.58
2016-08-18T08:33:53.482Z,60.46
2016-08-18T08:34:53.561Z,60.46
2016-08-18T08:35:54.924Z,60.39
2016-08-18T08:36:53.944Z,60.65
2016-08-18T08:37:55.127Z,60.49
2016-08-18T08:38:53.648Z,60.68
2016-08-18T08:39:53.923Z,59.91
2016-08-18T08:40:53.688Z,60.68
2016-08-18T08:41:53.701Z,60.49
2016-08-18T08:42:53.880Z,60.39
2016-08-18T08:43:53.756Z,60
2016-08-18T08:45:08.702Z,59.91
2016-08-18T08:45:53.808Z,60.39
2016-08-18T08:46:53.831Z,60.58
2016-08-18T08:47:54.604Z,61.52
2016-08-18T08:48:53.920Z,60.3
2016-08-18T08:49:53.914Z,61.65
2016-08-18T08:50:53.945Z,60.77
2016-08-18T08:51:54.474Z,60.49
2016-08-18T08:52:53.995Z,60.2
2016-08-18T08:53:54.022Z,60.13
2016-08-18T08:54:54.048Z,59.52
2016-08-18T08:55:54.076Z,59.65
2016-08-18T08:56:54.568Z,60.13
2016-08-18T08:57:54.133Z,60.03
2016-08-18T08:58:54.875Z,59.55
2016-08-18T08:59:54.910Z,60.52
2016-08-18T09:01:09.135Z,59.55
2016-08-18T09:01:54.247Z,59.45
2016-08-18T09:02:54.265Z,59.84
2016-08-18T09:03:54.296Z,59.84
2016-08-18T09:04:54.321Z,60.61
2016-08-18T09:05:54.349Z,58.91
2016-08-18T09:06:54.377Z,58.88
2016-08-18T09:07:54.404Z,58.88
2016-08-18T09:08:54.429Z,59.65
2016-08-18T09:09:54.462Z,58.97
2016-08-18T09:10:54.482Z,59.17
2016-08-18T09:11:54.511Z,58.69
2016-08-18T09:13:54.589Z,58.78
2016-08-18T09:14:54.595Z,57.65
2016-08-18T09:16:09.549Z,57.94
2016-08-18T09:16:54.651Z,58.3
2016-08-18T09:17:54.693Z,59.07
2016-08-18T09:18:54.705Z,58.4
2016-08-18T09:19:54.736Z,58.3
2016-08-18T09:20:54.764Z,59.07
2016-08-18T09:21:54.788Z,58.88
2016-08-18T09:22:54.819Z,58.78
2016-08-18T09:23:54.847Z,58.78
2016-08-18T09:24:54.873Z,59.45
2016-08-18T09:25:54.900Z,58.97
2016-08-18T09:26:54.929Z,58.69
2016-08-18T09:27:54.953Z,58.81
2016-08-18T09:28:54.984Z,58.52
2016-08-18T09:29:55.014Z,58.78
2016-08-18T09:30:55.040Z,58.72
2016-08-18T09:31:55.071Z,59
2016-08-18T09:33:55.122Z,59.55
2016-08-18T09:34:55.167Z,59.27
2016-08-18T09:35:55.195Z,58.91
2016-08-18T09:36:55.214Z,58.72
2016-08-18T09:37:55.236Z,58.52
2016-08-18T09:38:55.259Z,58.62
2016-08-18T09:39:55.287Z,59.55
2016-08-18T09:40:55.314Z,60.52
2016-08-18T09:41:55.355Z,60.61
2016-08-18T09:42:55.382Z,59.65
2016-08-18T09:43:55.398Z,58.42
2016-08-18T09:44:55.451Z,58.23
2016-08-18T09:45:55.453Z,57.75
2016-08-18T09:46:55.486Z,57.59
2016-08-18T09:48:10.434Z,58.45
2016-08-18T09:48:55.555Z,58.55
2016-08-18T09:49:55.568Z,57.49
2016-08-18T09:50:55.592Z,57.49
2016-08-18T09:51:55.628Z,57.9
2016-08-18T09:52:55.655Z,57.04
2016-08-18T09:53:55.681Z,57.42
2016-08-18T09:54:55.705Z,57.52
2016-08-18T09:55:55.838Z,57.42
2016-08-18T09:56:55.761Z,56.74
2016-08-18T09:57:55.789Z,56.84
2016-08-18T09:58:55.824Z,56.46
2016-08-18T09:59:55.847Z,56.56
2016-08-18T10:00:55.881Z,56.65
2016-08-18T10:01:55.947Z,57.06
2016-08-18T10:04:10.886Z,54.49
2016-08-18T10:04:55.994Z,54
2016-08-18T10:05:56.018Z,53.71
2016-08-18T10:06:56.047Z,54.87
2016-08-18T10:07:56.079Z,54.84
2016-08-18T10:08:56.102Z,53.71
2016-08-18T10:09:56.132Z,54.1
2016-08-18T10:10:56.158Z,53.83
2016-08-18T10:11:56.192Z,52.67
2016-08-18T10:12:56.215Z,53.25
2016-08-18T10:13:56.248Z,53.55
2016-08-18T10:14:56.327Z,52.92
2016-08-18T10:15:56.533Z,51.83
2016-08-18T10:16:56.332Z,52.82
2016-08-18T10:17:56.363Z,51.08
2016-08-18T10:18:56.391Z,50.6
2016-08-18T10:20:11.347Z,50.4
2016-08-18T10:20:56.451Z,51.37
2016-08-18T10:21:56.476Z,51.28
2016-08-18T10:22:56.508Z,50.31
2016-08-18T10:23:56.534Z,51.06
2016-08-18T10:24:56.570Z,51.83
2016-08-18T10:25:56.600Z,51.06
2016-08-18T10:26:56.628Z,51.83
2016-08-18T10:27:56.652Z,53.03
2016-08-18T10:28:56.687Z,52.55
2016-08-18T10:29:56.715Z,52.39
2016-08-18T10:30:56.741Z,52.77
2016-08-18T10:31:56.769Z,52
2016-08-18T10:32:56.801Z,51.81
2016-08-18T10:33:56.832Z,52.07
2016-08-18T10:34:56.861Z,52.91
2016-08-18T10:36:11.813Z,53.3
2016-08-18T10:36:56.921Z,53.59
2016-08-18T10:37:56.945Z,53.88
2016-08-18T10:38:56.981Z,53.3
2016-08-18T10:39:57.007Z,53.03
2016-08-18T10:40:57.034Z,52.53
2016-08-18T10:41:57.059Z,52.91
2016-08-18T10:42:57.090Z,53.88
2016-08-18T10:43:57.118Z,54.43
2016-08-18T10:44:57.156Z,54.98
2016-08-18T10:45:57.234Z,55.18
2016-08-18T10:47:57.233Z,54.98
2016-08-18T10:48:57.262Z,54.88
2016-08-18T10:49:57.293Z,54.72
2016-08-18T10:51:12.246Z,54.72
2016-08-18T10:51:57.356Z,54.43
2016-08-18T10:52:57.381Z,55.4
2016-08-18T10:53:57.406Z,55.56
2016-08-18T10:54:57.444Z,55.08
2016-08-18T10:55:57.468Z,54.88
2016-08-18T10:56:57.495Z,55.92
2016-08-18T10:57:57.526Z,55.85
2016-08-18T10:58:57.551Z,55.85
2016-08-18T10:59:57.582Z,55.66
2016-08-18T11:00:57.658Z,54.62
2016-08-18T11:01:57.649Z,55.56
2016-08-18T11:03:57.691Z,55.46
2016-08-18T11:04:57.726Z,55.46
2016-08-18T11:06:57.782Z,55.82
2016-08-18T11:07:57.808Z,56.3
2016-08-18T11:08:57.838Z,55.63
2016-08-18T11:09:57.876Z,56.57
2016-08-18T11:10:57.902Z,56.95
2016-08-18T11:11:57.924Z,56.66
2016-08-18T11:12:57.948Z,56.49
2016-08-18T11:13:57.982Z,56.04
2016-08-18T11:14:58.006Z,56.24
2016-08-18T11:15:58.037Z,55.85
2016-08-18T11:16:58.073Z,55.76
2016-08-18T11:17:58.092Z,56.62
2016-08-18T11:18:58.125Z,54.43
2016-08-18T11:19:58.150Z,53.59
2016-08-18T11:20:58.194Z,54.43
2016-08-18T11:21:58.208Z,55.1
2016-08-18T11:23:13.159Z,54.72
2016-08-18T11:23:58.261Z,54.98
2016-08-18T11:24:58.291Z,55.73
2016-08-18T11:25:58.318Z,56.14
2016-08-18T11:26:58.349Z,55.66
2016-08-18T11:27:58.377Z,56.01
2016-08-18T11:28:58.407Z,55.94
2016-08-18T11:29:58.433Z,55.92
2016-08-18T11:30:58.463Z,55.82
2016-08-18T11:31:58.490Z,56.24
2016-08-18T11:32:58.522Z,55.59
2016-08-18T11:33:58.547Z,53.56
2016-08-18T11:34:58.577Z,53.11
2016-08-18T11:36:58.631Z,51.68
2016-08-18T11:37:58.670Z,51.97
2016-08-18T11:39:13.616Z,51.68
2016-08-18T11:39:58.718Z,51.51
2016-08-18T11:40:58.743Z,51.23
2016-08-18T11:41:58.776Z,51.42
2016-08-18T11:42:58.802Z,51.03
2016-08-18T11:43:58.843Z,51.23
2016-08-18T11:44:58.861Z,52
2016-08-18T11:45:58.891Z,51.2
2016-08-18T11:46:58.923Z,51.81
2016-08-18T11:47:58.951Z,51.87
2016-08-18T11:48:58.978Z,51.87
2016-08-18T11:49:59.699Z,52.55
2016-08-18T11:50:59.034Z,53.01
2016-08-18T11:51:59.062Z,52.91
2016-08-18T11:52:59.093Z,53.49
2016-08-18T11:53:59.119Z,54.05
2016-08-18T11:55:14.072Z,53.3
2016-08-18T11:56:59.206Z,52.91
2016-08-18T12:12:02.031Z,50.89
2016-08-18T12:13:02.060Z,51.44
2016-08-18T12:14:02.780Z,51.92
2016-08-18T12:15:02.717Z,51.65
2016-08-18T12:16:02.745Z,51.46
2016-08-18T12:17:17.700Z,51.95
2016-08-18T12:18:02.804Z,51.68
2016-08-18T12:19:02.831Z,52.91
2016-08-18T12:20:02.863Z,53.01
2016-08-18T12:21:02.895Z,53.49
2016-08-18T12:22:02.922Z,54.19
2016-08-18T12:23:02.954Z,54.75
2016-08-18T12:24:02.978Z,55.2
2016-08-18T12:25:03.000Z,55.88
2016-08-18T12:26:03.030Z,56.65
2016-08-18T12:27:03.063Z,56.56
2016-08-18T12:28:03.090Z,56.74
2016-08-18T12:29:03.116Z,56.52
2016-08-18T12:30:03.144Z,57.62
2016-08-18T12:32:03.198Z,58.84
2016-08-18T12:33:18.157Z,58.65
2016-08-18T12:34:03.257Z,57.52
2016-08-18T12:35:03.289Z,57.04
2016-08-18T12:36:03.314Z,57.23
2016-08-18T12:37:03.341Z,57.59
2016-08-18T12:38:03.380Z,57.59
2016-08-18T12:39:04.096Z,57.32
2016-08-18T12:40:03.425Z,56.94
2016-08-18T12:41:03.453Z,57.52
2016-08-18T12:42:03.481Z,58.68
2016-08-18T12:43:03.509Z,58.75
2016-08-18T12:44:03.540Z,58.81
2016-08-18T12:46:03.594Z,58.58
2016-08-18T12:47:03.627Z,57.9
2016-08-18T12:48:18.577Z,57.81
2016-08-18T12:49:03.682Z,57.74
2016-08-18T12:50:03.713Z,57.93
2016-08-18T12:51:03.736Z,57.45
2016-08-18T12:52:03.762Z,57.62
2016-08-18T12:53:03.794Z,57.52
2016-08-18T12:54:03.821Z,57.42
2016-08-18T12:55:03.850Z,57.81
2016-08-18T12:56:03.875Z,57.32
2016-08-18T12:57:03.903Z,56.68
2016-08-18T12:58:03.935Z,55.98
2016-08-18T12:59:03.964Z,55.98
2016-08-18T13:00:03.995Z,56.2
2016-08-18T13:02:04.051Z,56.56
2016-08-18T13:03:04.082Z,56.77
2016-08-18T13:04:04.110Z,55.13
2016-08-18T13:05:04.131Z,55.52
2016-08-18T13:06:04.166Z,54.94
2016-08-18T13:07:04.191Z,55.23
2016-08-18T13:08:04.221Z,54.94
2016-08-18T13:09:04.247Z,54
2016-08-18T13:10:04.280Z,55.09
2016-08-18T13:11:04.307Z,54.49
2016-08-18T13:12:04.337Z,54.77
2016-08-18T13:13:04.364Z,55.16
2016-08-18T13:14:04.396Z,55.07
2016-08-18T13:15:04.424Z,55.07
2016-08-18T13:16:05.149Z,55.55
2016-08-18T13:18:04.506Z,54.49
2016-08-18T13:19:04.541Z,53.71
2016-08-18T13:20:19.539Z,53.81
2016-08-18T13:21:04.596Z,54.58
2016-08-18T13:22:04.626Z,54.49
2016-08-18T13:23:04.653Z,54.07
2016-08-18T13:24:04.678Z,54.55
2016-08-18T13:25:04.707Z,55.13
2016-08-18T13:27:04.767Z,55.4
2016-08-18T13:28:04.793Z,55.42
2016-08-18T13:29:04.823Z,56.07
2016-08-18T13:30:04.853Z,55.3
2016-08-18T13:31:04.879Z,54.62
2016-08-18T13:33:04.932Z,54.53
2016-08-18T13:34:04.963Z,54.82
2016-08-18T13:35:04.995Z,55.01
2016-08-18T13:36:19.947Z,55.59
2016-08-18T13:37:05.054Z,55.49
2016-08-18T13:38:05.076Z,55.98
2016-08-18T13:39:05.113Z,55.4
2016-08-18T13:40:05.145Z,55.49
2016-08-18T13:41:05.862Z,55.94
2016-08-18T13:42:05.188Z,55.18
2016-08-18T13:43:05.217Z,55.46
2016-08-18T13:44:05.245Z,55.46
2016-08-18T13:45:05.273Z,55.59
2016-08-18T13:46:05.307Z,54.62
2016-08-18T13:47:05.333Z,54.43
2016-08-18T13:48:05.360Z,54.53
2016-08-18T13:49:05.389Z,54.05
2016-08-18T13:50:05.421Z,53.56
2016-08-18T13:51:05.447Z,53.85
2016-08-18T13:52:20.397Z,53.27
2016-08-18T13:53:05.505Z,52.91
2016-08-18T13:54:05.541Z,52.04
2016-08-18T13:55:05.557Z,51.95
2016-08-18T13:56:05.583Z,52.72
2016-08-18T13:57:05.612Z,53.56
2016-08-18T13:58:05.643Z,53.2
2016-08-18T13:59:05.670Z,52.81
2016-08-18T14:00:05.700Z,52.36
2016-08-18T14:01:05.729Z,51.97
2016-08-18T14:02:05.764Z,52.17